sensor_id;sensor_type;location;lat;lon;timestamp;P1;durP1;ratioP1;P2;durP2;ratioP2
26435;SDS011;15351;52.408;16.826;2022-12-11T00:01:33;27.70;;;19.70;;
26435;SDS011;15351;52.408;16.826;2022-12-11T00:04:00;27.65;;;18.20;;
26435;SDS011;15351;52.408;16.826;2022-12-11T00:06:26;25.77;;;18.30;;
26435;SDS011;15351;52.408;16.826;2022-12-11T00:08:53;28.30;;;18.25;;
26435;SDS011;15351;52.408;16.826;2022-12-11T00:11:21;26.03;;;18.83;;
26435;SDS011;15351;52.408;16.826;2022-12-11T00:13:48;28.73;;;18.60;;
26435;SDS011;15351;52.408;16.826;2022-12-11T00:16:17;26.37;;;18.30;;
26435;SDS011;15351;52.408;16.826;2022-12-11T00:18:44;24.32;;;18.37;;
26435;SDS011;15351;52.408;16.826;2022-12-11T00:21:13;26.23;;;17.50;;
26435;SDS011;15351;52.408;16.826;2022-12-11T00:23:40;26.05;;;19.20;;
26435;SDS011;15351;52.408;16.826;2022-12-11T00:26:10;28.17;;;18.77;;
26435;SDS011;15351;52.408;16.826;2022-12-11T00:28:43;27.37;;;20.00;;
26435;SDS011;15351;52.408;16.826;2022-12-11T00:31:14;27.80;;;18.15;;
26435;SDS011;15351;52.408;16.826;2022-12-11T00:33:44;24.77;;;18.10;;
26435;SDS011;15351;52.408;16.826;2022-12-11T00:36:23;24.20;;;17.42;;
26435;SDS011;15351;52.408;16.826;2022-12-11T00:38:52;24.95;;;18.10;;
26435;SDS011;15351;52.408;16.826;2022-12-11T00:41:20;25.70;;;17.42;;
26435;SDS011;15351;52.408;16.826;2022-12-11T00:43:47;24.98;;;17.80;;
26435;SDS011;15351;52.408;16.826;2022-12-11T00:46:14;23.20;;;16.63;;
26435;SDS011;15351;52.408;16.826;2022-12-11T00:48:40;23.57;;;17.82;;
26435;SDS011;15351;52.408;16.826;2022-12-11T00:51:08;22.85;;;15.98;;
26435;SDS011;15351;52.408;16.826;2022-12-11T00:53:37;23.38;;;17.15;;
26435;SDS011;15351;52.408;16.826;2022-12-11T00:56:08;26.80;;;16.62;;
26435;SDS011;15351;52.408;16.826;2022-12-11T00:58:37;23.70;;;16.75;;
26435;SDS011;15351;52.408;16.826;2022-12-11T01:01:05;23.35;;;16.25;;
26435;SDS011;15351;52.408;16.826;2022-12-11T01:03:36;22.32;;;16.82;;
26435;SDS011;15351;52.408;16.826;2022-12-11T01:06:03;24.18;;;16.02;;
26435;SDS011;15351;52.408;16.826;2022-12-11T01:08:32;22.60;;;16.80;;
26435;SDS011;15351;52.408;16.826;2022-12-11T01:11:08;22.70;;;15.58;;
26435;SDS011;15351;52.408;16.826;2022-12-11T01:13:40;20.45;;;15.95;;
26435;SDS011;15351;52.408;16.826;2022-12-11T01:16:13;22.77;;;15.53;;
26435;SDS011;15351;52.408;16.826;2022-12-11T01:18:44;22.27;;;16.47;;
26435;SDS011;15351;52.408;16.826;2022-12-11T01:21:12;20.95;;;15.48;;
26435;SDS011;15351;52.408;16.826;2022-12-11T01:23:41;22.30;;;16.32;;
26435;SDS011;15351;52.408;16.826;2022-12-11T01:26:09;24.27;;;16.12;;
26435;SDS011;15351;52.408;16.826;2022-12-11T01:28:40;22.87;;;16.83;;
26435;SDS011;15351;52.408;16.826;2022-12-11T01:31:12;22.35;;;16.60;;
26435;SDS011;15351;52.408;16.826;2022-12-11T01:33:41;24.05;;;16.48;;
26435;SDS011;15351;52.408;16.826;2022-12-11T01:36:09;22.30;;;16.20;;
26435;SDS011;15351;52.408;16.826;2022-12-11T01:38:38;23.75;;;16.52;;
26435;SDS011;15351;52.408;16.826;2022-12-11T01:41:08;21.68;;;15.53;;
26435;SDS011;15351;52.408;16.826;2022-12-11T01:46:28;21.27;;;16.20;;
26435;SDS011;15351;52.408;16.826;2022-12-11T01:49:00;23.60;;;16.35;;
26435;SDS011;15351;52.408;16.826;2022-12-11T01:51:34;21.95;;;16.48;;
26435;SDS011;15351;52.408;16.826;2022-12-11T01:54:11;24.07;;;16.77;;
26435;SDS011;15351;52.408;16.826;2022-12-11T01:56:40;22.95;;;17.32;;
26435;SDS011;15351;52.408;16.826;2022-12-11T01:59:11;25.15;;;16.65;;
26435;SDS011;15351;52.408;16.826;2022-12-11T02:02:18;21.42;;;16.82;;
26435;SDS011;15351;52.408;16.826;2022-12-11T02:04:24;25.10;;;17.07;;
26435;SDS011;15351;52.408;16.826;2022-12-11T02:06:51;22.85;;;17.20;;
26435;SDS011;15351;52.408;16.826;2022-12-11T02:09:25;24.75;;;17.40;;
26435;SDS011;15351;52.408;16.826;2022-12-11T02:14:43;22.98;;;16.42;;
26435;SDS011;15351;52.408;16.826;2022-12-11T02:17:51;22.48;;;17.27;;
26435;SDS011;15351;52.408;16.826;2022-12-11T02:20:37;23.05;;;16.30;;
26435;SDS011;15351;52.408;16.826;2022-12-11T02:29:00;22.77;;;16.35;;
26435;SDS011;15351;52.408;16.826;2022-12-11T02:34:16;24.17;;;16.50;;
26435;SDS011;15351;52.408;16.826;2022-12-11T02:36:53;21.30;;;16.47;;
26435;SDS011;15351;52.408;16.826;2022-12-11T02:39:23;23.40;;;16.30;;
26435;SDS011;15351;52.408;16.826;2022-12-11T02:41:51;22.13;;;17.12;;
26435;SDS011;15351;52.408;16.826;2022-12-11T02:44:20;24.15;;;16.90;;
26435;SDS011;15351;52.408;16.826;2022-12-11T02:46:50;21.40;;;16.45;;
26435;SDS011;15351;52.408;16.826;2022-12-11T02:49:18;23.83;;;16.40;;
26435;SDS011;15351;52.408;16.826;2022-12-11T02:51:46;23.10;;;16.70;;
26435;SDS011;15351;52.408;16.826;2022-12-11T02:54:15;23.12;;;16.00;;
26435;SDS011;15351;52.408;16.826;2022-12-11T02:56:46;21.17;;;16.27;;
26435;SDS011;15351;52.408;16.826;2022-12-11T02:59:24;23.50;;;16.15;;
26435;SDS011;15351;52.408;16.826;2022-12-11T03:01:51;23.00;;;16.87;;
26435;SDS011;15351;52.408;16.826;2022-12-11T03:04:19;23.70;;;16.42;;
26435;SDS011;15351;52.408;16.826;2022-12-11T03:06:52;22.70;;;16.97;;
26435;SDS011;15351;52.408;16.826;2022-12-11T03:09:24;22.62;;;16.20;;
26435;SDS011;15351;52.408;16.826;2022-12-11T03:11:51;22.53;;;16.33;;
26435;SDS011;15351;52.408;16.826;2022-12-11T03:14:18;22.73;;;16.02;;
26435;SDS011;15351;52.408;16.826;2022-12-11T03:16:55;20.20;;;16.15;;
26435;SDS011;15351;52.408;16.826;2022-12-11T03:19:36;21.52;;;15.15;;
26435;SDS011;15351;52.408;16.826;2022-12-11T03:22:09;21.40;;;16.32;;
26435;SDS011;15351;52.408;16.826;2022-12-11T03:25:02;24.40;;;16.52;;
26435;SDS011;15351;52.408;16.826;2022-12-11T03:27:45;22.80;;;16.33;;
26435;SDS011;15351;52.408;16.826;2022-12-11T03:30:24;22.10;;;16.40;;
26435;SDS011;15351;52.408;16.826;2022-12-11T03:32:55;23.92;;;16.55;;
26435;SDS011;15351;52.408;16.826;2022-12-11T03:35:28;21.17;;;16.23;;
26435;SDS011;15351;52.408;16.826;2022-12-11T03:38:09;24.18;;;16.37;;
26435;SDS011;15351;52.408;16.826;2022-12-11T03:40:44;22.33;;;17.00;;
26435;SDS011;15351;52.408;16.826;2022-12-11T03:43:14;24.82;;;16.17;;
26435;SDS011;15351;52.408;16.826;2022-12-11T03:45:41;21.85;;;16.55;;
26435;SDS011;15351;52.408;16.826;2022-12-11T03:48:12;22.58;;;15.95;;
26435;SDS011;15351;52.408;16.826;2022-12-11T03:50:39;20.95;;;15.53;;
26435;SDS011;15351;52.408;16.826;2022-12-11T03:53:07;24.77;;;16.50;;
26435;SDS011;15351;52.408;16.826;2022-12-11T03:55:35;21.95;;;16.12;;
26435;SDS011;15351;52.408;16.826;2022-12-11T03:58:05;21.30;;;14.95;;
26435;SDS011;15351;52.408;16.826;2022-12-11T04:00:32;20.02;;;15.20;;
26435;SDS011;15351;52.408;16.826;2022-12-11T04:02:59;22.82;;;15.78;;
26435;SDS011;15351;52.408;16.826;2022-12-11T04:05:43;21.00;;;15.75;;
26435;SDS011;15351;52.408;16.826;2022-12-11T04:08:13;22.33;;;15.67;;
26435;SDS011;15351;52.408;16.826;2022-12-11T04:10:44;21.65;;;16.62;;
26435;SDS011;15351;52.408;16.826;2022-12-11T04:13:11;22.22;;;15.60;;
26435;SDS011;15351;52.408;16.826;2022-12-11T04:15:39;20.43;;;15.10;;
26435;SDS011;15351;52.408;16.826;2022-12-11T04:18:06;20.23;;;14.73;;
26435;SDS011;15351;52.408;16.826;2022-12-11T04:20:53;19.57;;;14.68;;
26435;SDS011;15351;52.408;16.826;2022-12-11T04:23:40;20.35;;;15.20;;
26435;SDS011;15351;52.408;16.826;2022-12-11T04:26:18;20.60;;;14.87;;
26435;SDS011;15351;52.408;16.826;2022-12-11T04:28:47;19.40;;;14.93;;
26435;SDS011;15351;52.408;16.826;2022-12-11T04:31:20;21.97;;;15.30;;
26435;SDS011;15351;52.408;16.826;2022-12-11T04:33:46;19.75;;;14.75;;
26435;SDS011;15351;52.408;16.826;2022-12-11T04:36:14;19.02;;;13.72;;
26435;SDS011;15351;52.408;16.826;2022-12-11T04:38:41;18.45;;;13.80;;
26435;SDS011;15351;52.408;16.826;2022-12-11T04:41:13;18.97;;;13.47;;
26435;SDS011;15351;52.408;16.826;2022-12-11T04:43:39;16.93;;;12.90;;
26435;SDS011;15351;52.408;16.826;2022-12-11T04:46:15;17.50;;;12.78;;
26435;SDS011;15351;52.408;16.826;2022-12-11T04:48:46;17.33;;;12.60;;
26435;SDS011;15351;52.408;16.826;2022-12-11T04:51:13;17.12;;;12.18;;
26435;SDS011;15351;52.408;16.826;2022-12-11T04:53:41;15.53;;;12.20;;
26435;SDS011;15351;52.408;16.826;2022-12-11T04:56:08;15.75;;;11.75;;
26435;SDS011;15351;52.408;16.826;2022-12-11T04:58:39;15.32;;;12.10;;
26435;SDS011;15351;52.408;16.826;2022-12-11T05:01:12;16.17;;;11.93;;
26435;SDS011;15351;52.408;16.826;2022-12-11T05:03:42;14.93;;;12.30;;
26435;SDS011;15351;52.408;16.826;2022-12-11T05:06:09;16.07;;;11.68;;
26435;SDS011;15351;52.408;16.826;2022-12-11T05:08:37;15.90;;;12.28;;
26435;SDS011;15351;52.408;16.826;2022-12-11T05:11:06;15.20;;;11.63;;
26435;SDS011;15351;52.408;16.826;2022-12-11T05:13:37;14.30;;;11.30;;
26435;SDS011;15351;52.408;16.826;2022-12-11T05:16:04;15.88;;;11.35;;
26435;SDS011;15351;52.408;16.826;2022-12-11T05:18:34;13.30;;;11.00;;
26435;SDS011;15351;52.408;16.826;2022-12-11T05:21:04;14.43;;;10.93;;
26435;SDS011;15351;52.408;16.826;2022-12-11T05:23:33;13.90;;;10.87;;
26435;SDS011;15351;52.408;16.826;2022-12-11T05:26:03;14.18;;;10.53;;
26435;SDS011;15351;52.408;16.826;2022-12-11T05:28:34;13.32;;;10.35;;
26435;SDS011;15351;52.408;16.826;2022-12-11T05:31:07;12.50;;;9.70;;
26435;SDS011;15351;52.408;16.826;2022-12-11T05:33:39;13.30;;;10.48;;
26435;SDS011;15351;52.408;16.826;2022-12-11T05:36:07;14.75;;;10.82;;
26435;SDS011;15351;52.408;16.826;2022-12-11T05:38:35;14.70;;;11.25;;
26435;SDS011;15351;52.408;16.826;2022-12-11T05:41:03;15.25;;;11.30;;
26435;SDS011;15351;52.408;16.826;2022-12-11T05:43:32;12.80;;;10.63;;
26435;SDS011;15351;52.408;16.826;2022-12-11T05:46:05;14.87;;;11.13;;
26435;SDS011;15351;52.408;16.826;2022-12-11T05:48:36;13.63;;;10.87;;
26435;SDS011;15351;52.408;16.826;2022-12-11T05:51:07;14.43;;;10.40;;
26435;SDS011;15351;52.408;16.826;2022-12-11T05:53:37;16.00;;;11.20;;
26435;SDS011;15351;52.408;16.826;2022-12-11T05:56:06;14.87;;;10.95;;
26435;SDS011;15351;52.408;16.826;2022-12-11T05:58:37;14.73;;;11.45;;
26435;SDS011;15351;52.408;16.826;2022-12-11T06:01:09;14.63;;;10.93;;
26435;SDS011;15351;52.408;16.826;2022-12-11T06:03:39;15.18;;;11.70;;
26435;SDS011;15351;52.408;16.826;2022-12-11T06:06:07;17.37;;;11.60;;
26435;SDS011;15351;52.408;16.826;2022-12-11T06:08:34;16.00;;;12.30;;
26435;SDS011;15351;52.408;16.826;2022-12-11T06:11:01;17.50;;;12.15;;
26435;SDS011;15351;52.408;16.826;2022-12-11T06:13:29;15.50;;;12.07;;
26435;SDS011;15351;52.408;16.826;2022-12-11T06:16:01;17.50;;;12.25;;
26435;SDS011;15351;52.408;16.826;2022-12-11T06:18:30;16.32;;;12.15;;
26435;SDS011;15351;52.408;16.826;2022-12-11T06:20:56;17.27;;;12.28;;
26435;SDS011;15351;52.408;16.826;2022-12-11T06:23:23;17.80;;;12.95;;
26435;SDS011;15351;52.408;16.826;2022-12-11T06:25:49;18.33;;;12.20;;
26435;SDS011;15351;52.408;16.826;2022-12-11T06:28:18;16.85;;;12.20;;
26435;SDS011;15351;52.408;16.826;2022-12-11T06:30:47;16.42;;;11.73;;
26435;SDS011;15351;52.408;16.826;2022-12-11T06:33:16;17.42;;;12.88;;
26435;SDS011;15351;52.408;16.826;2022-12-11T06:35:44;17.07;;;12.63;;
26435;SDS011;15351;52.408;16.826;2022-12-11T06:38:15;18.27;;;12.78;;
26435;SDS011;15351;52.408;16.826;2022-12-11T06:40:43;16.12;;;12.60;;
26435;SDS011;15351;52.408;16.826;2022-12-11T06:43:10;26.68;;;18.30;;
26435;SDS011;15351;52.408;16.826;2022-12-11T06:45:36;22.97;;;16.93;;
26435;SDS011;15351;52.408;16.826;2022-12-11T06:48:03;19.55;;;13.65;;
26435;SDS011;15351;52.408;16.826;2022-12-11T06:50:29;19.27;;;14.50;;
26435;SDS011;15351;52.408;16.826;2022-12-11T06:52:56;21.52;;;14.85;;
26435;SDS011;15351;52.408;16.826;2022-12-11T06:55:22;20.20;;;14.73;;
26435;SDS011;15351;52.408;16.826;2022-12-11T06:57:49;24.57;;;17.77;;
26435;SDS011;15351;52.408;16.826;2022-12-11T07:00:15;23.32;;;15.90;;
26435;SDS011;15351;52.408;16.826;2022-12-11T07:02:42;21.65;;;15.28;;
26435;SDS011;15351;52.408;16.826;2022-12-11T07:05:11;21.12;;;14.30;;
26435;SDS011;15351;52.408;16.826;2022-12-11T07:07:37;20.88;;;14.87;;
26435;SDS011;15351;52.408;16.826;2022-12-11T07:10:04;17.62;;;13.08;;
26435;SDS011;15351;52.408;16.826;2022-12-11T07:12:31;16.75;;;12.88;;
26435;SDS011;15351;52.408;16.826;2022-12-11T07:14:58;17.60;;;12.87;;
26435;SDS011;15351;52.408;16.826;2022-12-11T07:17:24;18.95;;;13.22;;
26435;SDS011;15351;52.408;16.826;2022-12-11T07:19:51;20.70;;;14.70;;
26435;SDS011;15351;52.408;16.826;2022-12-11T07:22:18;24.90;;;17.12;;
26435;SDS011;15351;52.408;16.826;2022-12-11T07:24:47;20.40;;;15.25;;
26435;SDS011;15351;52.408;16.826;2022-12-11T07:27:18;19.45;;;14.80;;
26435;SDS011;15351;52.408;16.826;2022-12-11T07:29:45;20.97;;;15.32;;
26435;SDS011;15351;52.408;16.826;2022-12-11T07:32:12;25.43;;;17.00;;
26435;SDS011;15351;52.408;16.826;2022-12-11T07:34:39;25.90;;;17.17;;
26435;SDS011;15351;52.408;16.826;2022-12-11T07:37:08;20.80;;;15.30;;
26435;SDS011;15351;52.408;16.826;2022-12-11T07:39:35;22.33;;;15.37;;
26435;SDS011;15351;52.408;16.826;2022-12-11T07:42:01;21.35;;;16.27;;
26435;SDS011;15351;52.408;16.826;2022-12-11T07:44:28;19.77;;;15.08;;
26435;SDS011;15351;52.408;16.826;2022-12-11T07:46:56;20.90;;;15.98;;
26435;SDS011;15351;52.408;16.826;2022-12-11T07:49:23;20.48;;;14.68;;
26435;SDS011;15351;52.408;16.826;2022-12-11T07:51:49;19.95;;;14.70;;
26435;SDS011;15351;52.408;16.826;2022-12-11T07:54:17;18.52;;;12.85;;
26435;SDS011;15351;52.408;16.826;2022-12-11T07:56:46;17.67;;;13.53;;
26435;SDS011;15351;52.408;16.826;2022-12-11T07:59:13;17.70;;;13.15;;
26435;SDS011;15351;52.408;16.826;2022-12-11T08:01:46;17.85;;;12.90;;
26435;SDS011;15351;52.408;16.826;2022-12-11T08:04:14;20.20;;;13.50;;
26435;SDS011;15351;52.408;16.826;2022-12-11T08:06:41;19.20;;;13.93;;
26435;SDS011;15351;52.408;16.826;2022-12-11T08:09:11;17.87;;;12.85;;
26435;SDS011;15351;52.408;16.826;2022-12-11T08:11:39;18.07;;;13.32;;
26435;SDS011;15351;52.408;16.826;2022-12-11T08:14:06;17.77;;;13.10;;
26435;SDS011;15351;52.408;16.826;2022-12-11T08:16:33;17.75;;;12.85;;
26435;SDS011;15351;52.408;16.826;2022-12-11T08:19:02;19.77;;;13.20;;
26435;SDS011;15351;52.408;16.826;2022-12-11T08:21:28;19.27;;;13.40;;
26435;SDS011;15351;52.408;16.826;2022-12-11T08:23:55;18.87;;;13.48;;
26435;SDS011;15351;52.408;16.826;2022-12-11T08:26:22;19.17;;;13.65;;
26435;SDS011;15351;52.408;16.826;2022-12-11T08:28:53;20.37;;;14.20;;
26435;SDS011;15351;52.408;16.826;2022-12-11T08:31:20;17.82;;;13.10;;
26435;SDS011;15351;52.408;16.826;2022-12-11T08:33:48;19.52;;;13.95;;
26435;SDS011;15351;52.408;16.826;2022-12-11T08:36:17;18.80;;;13.53;;
26435;SDS011;15351;52.408;16.826;2022-12-11T08:38:48;18.65;;;13.03;;
26435;SDS011;15351;52.408;16.826;2022-12-11T08:41:18;18.20;;;13.28;;
26435;SDS011;15351;52.408;16.826;2022-12-11T08:43:48;18.33;;;13.50;;
26435;SDS011;15351;52.408;16.826;2022-12-11T08:46:23;21.80;;;14.30;;
26435;SDS011;15351;52.408;16.826;2022-12-11T08:48:51;22.83;;;15.57;;
26435;SDS011;15351;52.408;16.826;2022-12-11T08:51:22;23.02;;;17.10;;
26435;SDS011;15351;52.408;16.826;2022-12-11T08:53:53;22.82;;;17.07;;
26435;SDS011;15351;52.408;16.826;2022-12-11T08:56:21;24.63;;;17.23;;
26435;SDS011;15351;52.408;16.826;2022-12-11T08:58:50;21.93;;;14.80;;
26435;SDS011;15351;52.408;16.826;2022-12-11T09:01:22;20.50;;;13.95;;
26435;SDS011;15351;52.408;16.826;2022-12-11T09:03:51;19.20;;;14.13;;
26435;SDS011;15351;52.408;16.826;2022-12-11T09:06:21;27.10;;;19.23;;
26435;SDS011;15351;52.408;16.826;2022-12-11T09:08:51;22.67;;;15.83;;
26435;SDS011;15351;52.408;16.826;2022-12-11T09:11:21;20.02;;;13.70;;
26435;SDS011;15351;52.408;16.826;2022-12-11T09:13:50;17.32;;;12.75;;
26435;SDS011;15351;52.408;16.826;2022-12-11T09:16:19;19.90;;;13.17;;
26435;SDS011;15351;52.408;16.826;2022-12-11T09:18:49;20.50;;;13.70;;
26435;SDS011;15351;52.408;16.826;2022-12-11T09:21:19;26.77;;;16.02;;
26435;SDS011;15351;52.408;16.826;2022-12-11T09:23:57;28.12;;;16.82;;
26435;SDS011;15351;52.408;16.826;2022-12-11T09:26:26;22.35;;;14.30;;
26435;SDS011;15351;52.408;16.826;2022-12-11T09:28:57;28.90;;;19.98;;
26435;SDS011;15351;52.408;16.826;2022-12-11T09:31:36;29.18;;;19.12;;
26435;SDS011;15351;52.408;16.826;2022-12-11T09:34:29;22.27;;;15.70;;
26435;SDS011;15351;52.408;16.826;2022-12-11T09:36:59;21.60;;;14.67;;
26435;SDS011;15351;52.408;16.826;2022-12-11T09:39:32;22.30;;;15.60;;
26435;SDS011;15351;52.408;16.826;2022-12-11T09:42:31;23.32;;;15.53;;
26435;SDS011;15351;52.408;16.826;2022-12-11T09:45:09;20.25;;;15.18;;
26435;SDS011;15351;52.408;16.826;2022-12-11T09:47:40;28.85;;;16.17;;
26435;SDS011;15351;52.408;16.826;2022-12-11T09:50:23;26.65;;;16.12;;
26435;SDS011;15351;52.408;16.826;2022-12-11T09:53:04;23.85;;;17.20;;
26435;SDS011;15351;52.408;16.826;2022-12-11T10:04:51;27.62;;;18.55;;
26435;SDS011;15351;52.408;16.826;2022-12-11T10:13:05;27.73;;;18.12;;
26435;SDS011;15351;52.408;16.826;2022-12-11T10:15:58;30.10;;;19.03;;
26435;SDS011;15351;52.408;16.826;2022-12-11T10:18:40;35.35;;;23.77;;
26435;SDS011;15351;52.408;16.826;2022-12-11T10:21:16;31.60;;;19.10;;
26435;SDS011;15351;52.408;16.826;2022-12-11T10:23:45;23.27;;;17.33;;
26435;SDS011;15351;52.408;16.826;2022-12-11T10:26:19;23.10;;;16.15;;
26435;SDS011;15351;52.408;16.826;2022-12-11T10:28:49;24.70;;;17.65;;
26435;SDS011;15351;52.408;16.826;2022-12-11T10:31:19;25.30;;;16.70;;
26435;SDS011;15351;52.408;16.826;2022-12-11T10:34:07;27.30;;;17.73;;
26435;SDS011;15351;52.408;16.826;2022-12-11T10:36:40;33.38;;;18.87;;
26435;SDS011;15351;52.408;16.826;2022-12-11T10:39:19;28.47;;;17.67;;
26435;SDS011;15351;52.408;16.826;2022-12-11T10:41:49;31.55;;;18.70;;
26435;SDS011;15351;52.408;16.826;2022-12-11T10:44:25;31.57;;;19.02;;
26435;SDS011;15351;52.408;16.826;2022-12-11T10:47:00;26.97;;;17.70;;
26435;SDS011;15351;52.408;16.826;2022-12-11T10:49:43;23.87;;;16.05;;
26435;SDS011;15351;52.408;16.826;2022-12-11T10:52:24;21.97;;;15.98;;
26435;SDS011;15351;52.408;16.826;2022-12-11T10:55:02;25.80;;;16.30;;
26435;SDS011;15351;52.408;16.826;2022-12-11T10:57:44;25.70;;;18.27;;
26435;SDS011;15351;52.408;16.826;2022-12-11T11:00:39;31.70;;;20.00;;
26435;SDS011;15351;52.408;16.826;2022-12-11T11:03:21;31.20;;;20.57;;
26435;SDS011;15351;52.408;16.826;2022-12-11T11:06:01;28.85;;;19.37;;
26435;SDS011;15351;52.408;16.826;2022-12-11T11:08:51;29.73;;;19.90;;
26435;SDS011;15351;52.408;16.826;2022-12-11T11:11:29;22.85;;;17.77;;
26435;SDS011;15351;52.408;16.826;2022-12-11T11:16:47;26.55;;;18.55;;
26435;SDS011;15351;52.408;16.826;2022-12-11T11:22:03;24.77;;;17.50;;
26435;SDS011;15351;52.408;16.826;2022-12-11T11:24:51;23.77;;;16.23;;
26435;SDS011;15351;52.408;16.826;2022-12-11T11:27:46;24.63;;;18.13;;
26435;SDS011;15351;52.408;16.826;2022-12-11T11:33:09;28.05;;;18.25;;
26435;SDS011;15351;52.408;16.826;2022-12-11T11:35:52;27.02;;;19.15;;
26435;SDS011;15351;52.408;16.826;2022-12-11T11:38:30;27.55;;;19.57;;
26435;SDS011;15351;52.408;16.826;2022-12-11T11:41:12;25.25;;;18.75;;
26435;SDS011;15351;52.408;16.826;2022-12-11T11:43:57;28.92;;;18.87;;
26435;SDS011;15351;52.408;16.826;2022-12-11T11:46:41;27.27;;;18.80;;
26435;SDS011;15351;52.408;16.826;2022-12-11T11:52:18;25.65;;;18.60;;
26435;SDS011;15351;52.408;16.826;2022-12-11T11:55:13;30.08;;;18.98;;
26435;SDS011;15351;52.408;16.826;2022-12-11T11:58:23;25.60;;;17.60;;
26435;SDS011;15351;52.408;16.826;2022-12-11T12:00:57;23.02;;;17.62;;
26435;SDS011;15351;52.408;16.826;2022-12-11T12:03:25;27.15;;;17.57;;
26435;SDS011;15351;52.408;16.826;2022-12-11T12:06:03;37.50;;;24.98;;
26435;SDS011;15351;52.408;16.826;2022-12-11T12:08:56;28.45;;;19.48;;
26435;SDS011;15351;52.408;16.826;2022-12-11T12:14:37;24.05;;;17.55;;
26435;SDS011;15351;52.408;16.826;2022-12-11T12:17:18;26.25;;;19.07;;
26435;SDS011;15351;52.408;16.826;2022-12-11T12:29:05;24.37;;;16.80;;
26435;SDS011;15351;52.408;16.826;2022-12-11T12:31:54;24.98;;;17.98;;
26435;SDS011;15351;52.408;16.826;2022-12-11T12:40:26;24.07;;;16.67;;
26435;SDS011;15351;52.408;16.826;2022-12-11T12:49:06;23.52;;;15.28;;
26435;SDS011;15351;52.408;16.826;2022-12-11T12:51:38;22.50;;;14.13;;
26435;SDS011;15351;52.408;16.826;2022-12-11T12:54:11;20.70;;;14.40;;
26435;SDS011;15351;52.408;16.826;2022-12-11T12:56:42;20.32;;;12.73;;
26435;SDS011;15351;52.408;16.826;2022-12-11T12:59:19;19.80;;;13.05;;
26435;SDS011;15351;52.408;16.826;2022-12-11T13:01:56;22.13;;;12.93;;
26435;SDS011;15351;52.408;16.826;2022-12-11T13:04:34;19.05;;;12.47;;
26435;SDS011;15351;52.408;16.826;2022-12-11T13:07:15;19.85;;;12.18;;
26435;SDS011;15351;52.408;16.826;2022-12-11T13:12:49;17.10;;;11.60;;
26435;SDS011;15351;52.408;16.826;2022-12-11T13:18:06;23.42;;;14.58;;
26435;SDS011;15351;52.408;16.826;2022-12-11T13:20:56;23.38;;;14.45;;
26435;SDS011;15351;52.408;16.826;2022-12-11T13:23:33;20.82;;;13.60;;
26435;SDS011;15351;52.408;16.826;2022-12-11T13:26:03;23.38;;;14.28;;
26435;SDS011;15351;52.408;16.826;2022-12-11T13:34:06;18.95;;;13.38;;
26435;SDS011;15351;52.408;16.826;2022-12-11T13:36:47;19.45;;;13.22;;
26435;SDS011;15351;52.408;16.826;2022-12-11T13:39:18;19.32;;;13.78;;
26435;SDS011;15351;52.408;16.826;2022-12-11T13:41:56;19.98;;;12.65;;
26435;SDS011;15351;52.408;16.826;2022-12-11T13:44:38;18.67;;;13.13;;
26435;SDS011;15351;52.408;16.826;2022-12-11T13:47:10;19.48;;;12.98;;
26435;SDS011;15351;52.408;16.826;2022-12-11T13:49:41;19.92;;;14.47;;
26435;SDS011;15351;52.408;16.826;2022-12-11T13:52:17;22.87;;;15.23;;
26435;SDS011;15351;52.408;16.826;2022-12-11T13:54:48;21.35;;;14.95;;
26435;SDS011;15351;52.408;16.826;2022-12-11T13:57:18;19.45;;;13.32;;
26435;SDS011;15351;52.408;16.826;2022-12-11T13:59:55;22.05;;;15.72;;
26435;SDS011;15351;52.408;16.826;2022-12-11T14:02:27;22.95;;;14.78;;
26435;SDS011;15351;52.408;16.826;2022-12-11T14:05:04;24.95;;;16.02;;
26435;SDS011;15351;52.408;16.826;2022-12-11T14:07:41;22.70;;;15.23;;
26435;SDS011;15351;52.408;16.826;2022-12-11T14:10:21;23.55;;;15.60;;
26435;SDS011;15351;52.408;16.826;2022-12-11T14:15:42;23.57;;;15.38;;
26435;SDS011;15351;52.408;16.826;2022-12-11T14:18:17;23.55;;;15.80;;
26435;SDS011;15351;52.408;16.826;2022-12-11T14:20:54;29.52;;;16.00;;
26435;SDS011;15351;52.408;16.826;2022-12-11T14:23:27;23.12;;;16.17;;
26435;SDS011;15351;52.408;16.826;2022-12-11T14:26:01;24.32;;;16.23;;
26435;SDS011;15351;52.408;16.826;2022-12-11T14:28:36;21.27;;;15.50;;
26435;SDS011;15351;52.408;16.826;2022-12-11T14:31:06;20.35;;;14.28;;
26435;SDS011;15351;52.408;16.826;2022-12-11T14:33:43;20.72;;;15.00;;
26435;SDS011;15351;52.408;16.826;2022-12-11T14:36:15;23.02;;;14.85;;
26435;SDS011;15351;52.408;16.826;2022-12-11T14:38:48;22.20;;;16.10;;
26435;SDS011;15351;52.408;16.826;2022-12-11T14:42:09;24.02;;;15.28;;
26435;SDS011;15351;52.408;16.826;2022-12-11T14:44:16;22.32;;;15.93;;
26435;SDS011;15351;52.408;16.826;2022-12-11T14:46:58;23.00;;;14.38;;
26435;SDS011;15351;52.408;16.826;2022-12-11T14:49:30;20.12;;;14.58;;
26435;SDS011;15351;52.408;16.826;2022-12-11T14:52:19;20.32;;;14.50;;
26435;SDS011;15351;52.408;16.826;2022-12-11T14:54:49;20.27;;;14.53;;
26435;SDS011;15351;52.408;16.826;2022-12-11T14:57:25;19.32;;;14.58;;
26435;SDS011;15351;52.408;16.826;2022-12-11T14:59:55;23.45;;;14.58;;
26435;SDS011;15351;52.408;16.826;2022-12-11T15:02:24;19.92;;;13.93;;
26435;SDS011;15351;52.408;16.826;2022-12-11T15:05:01;20.82;;;13.83;;
26435;SDS011;15351;52.408;16.826;2022-12-11T15:07:34;21.42;;;15.00;;
26435;SDS011;15351;52.408;16.826;2022-12-11T15:10:02;22.70;;;15.33;;
26435;SDS011;15351;52.408;16.826;2022-12-11T15:12:31;23.35;;;16.67;;
26435;SDS011;15351;52.408;16.826;2022-12-11T15:15:02;24.07;;;15.77;;
26435;SDS011;15351;52.408;16.826;2022-12-11T15:17:35;22.10;;;16.50;;
26435;SDS011;15351;52.408;16.826;2022-12-11T15:20:07;24.55;;;16.90;;
26435;SDS011;15351;52.408;16.826;2022-12-11T15:22:40;28.87;;;19.52;;
26435;SDS011;15351;52.408;16.826;2022-12-11T15:25:16;34.60;;;21.73;;
26435;SDS011;15351;52.408;16.826;2022-12-11T15:27:54;25.72;;;18.65;;
26435;SDS011;15351;52.408;16.826;2022-12-11T15:30:25;25.08;;;17.10;;
26435;SDS011;15351;52.408;16.826;2022-12-11T15:38:29;29.65;;;21.80;;
26435;SDS011;15351;52.408;16.826;2022-12-11T15:40:56;29.23;;;19.17;;
26435;SDS011;15351;52.408;16.826;2022-12-11T15:43:23;23.35;;;16.77;;
26435;SDS011;15351;52.408;16.826;2022-12-11T15:45:51;23.07;;;15.10;;
26435;SDS011;15351;52.408;16.826;2022-12-11T15:48:18;22.40;;;16.60;;
26435;SDS011;15351;52.408;16.826;2022-12-11T15:50:44;21.60;;;15.53;;
26435;SDS011;15351;52.408;16.826;2022-12-11T15:53:11;32.50;;;25.05;;
26435;SDS011;15351;52.408;16.826;2022-12-11T15:55:37;39.75;;;28.17;;
26435;SDS011;15351;52.408;16.826;2022-12-11T15:58:06;39.25;;;29.72;;
26435;SDS011;15351;52.408;16.826;2022-12-11T16:00:39;55.33;;;32.43;;
26435;SDS011;15351;52.408;16.826;2022-12-11T16:03:20;65.37;;;37.78;;